Three Churches, West Virginia
Current Conditions -  °F | °C
As of 1:18 AM on Monday 26 Jan 2015 (Local Time) from KCBE Reporting Station
Overcast Overcast  
Wind Chill: 36°   Ceiling: 1100
Heat Index: 36°   Visibility: 7mi
Dew Point: 34°   Wind: 3mph
Humidity: 93%   Direction: 10°N
Pressure: 29.82"   Gusts: NA
Location:  39.2897°N, 78.7672°W
Report Text: KCBE 260618Z AUTO 01003KT 7SM OVC011 02/01 A2982 RMK AO1
Loading
Personal Weather Stations






























Interactive Weather Map New forecast layout! Learn more

10-Day Weather Forecast

Advertisements
Track Severe Weather on mobile